createdAt,value
2022-09-29T00:19:46.640Z,4.25
2022-09-29T00:22:14.331Z,4.47
2022-09-29T00:24:41.646Z,4.07
2022-09-29T00:27:08.983Z,4.45
2022-09-29T00:29:36.601Z,4.03
2022-09-29T00:32:03.973Z,3.90
2022-09-29T00:34:31.339Z,4.25
2022-09-29T00:36:59.016Z,4.30
2022-09-29T00:39:26.340Z,4.53
2022-09-29T00:41:53.710Z,4.65
2022-09-29T00:44:21.223Z,4.30
2022-09-29T00:46:55.156Z,4.22
2022-09-29T00:49:34.313Z,4.40
2022-09-29T00:52:14.630Z,4.55
2022-09-29T00:54:46.415Z,4.80
2022-09-29T00:57:16.183Z,4.30
2022-09-29T00:59:54.623Z,4.60
2022-09-29T01:02:22.888Z,4.78
2022-09-29T01:04:52.955Z,5.28
2022-09-29T01:07:23.166Z,4.57
2022-09-29T01:09:52.671Z,5.28
2022-09-29T01:12:20.544Z,4.97
2022-09-29T01:14:48.458Z,5.50
2022-09-29T01:17:16.491Z,4.43
2022-09-29T01:19:52.852Z,4.47
2022-09-29T01:22:30.026Z,4.93
2022-09-29T01:25:15.589Z,4.78
2022-09-29T01:27:45.831Z,5.18
2022-09-29T01:30:19.061Z,5.93
2022-09-29T01:33:12.016Z,5.78
2022-09-29T01:36:31.014Z,5.75
2022-09-29T01:39:01.423Z,5.18
2022-09-29T01:41:28.667Z,5.85
2022-09-29T01:44:11.202Z,6.30
2022-09-29T01:46:48.593Z,5.37
2022-09-29T01:49:16.740Z,5.20
2022-09-29T01:51:52.406Z,5.93
2022-09-29T01:54:24.916Z,5.68
2022-09-29T01:57:03.493Z,5.93
2022-09-29T01:59:41.335Z,6.25
2022-09-29T02:02:12.776Z,5.57
2022-09-29T02:04:54.913Z,6.60
2022-09-29T02:07:43.091Z,6.20
2022-09-29T02:10:16.034Z,5.53
2022-09-29T02:12:44.984Z,5.68
2022-09-29T02:15:17.112Z,6.05
2022-09-29T02:17:46.023Z,6.28
2022-09-29T02:20:14.293Z,5.75
2022-09-29T02:22:41.983Z,6.12
2022-09-29T02:25:11.512Z,6.53
2022-09-29T02:27:40.460Z,6.45
2022-09-29T02:30:08.603Z,6.43
2022-09-29T02:32:36.313Z,6.78
2022-09-29T02:35:06.998Z,6.90
2022-09-29T02:37:37.122Z,6.60
2022-09-29T02:40:47.572Z,7.05
2022-09-29T02:43:24.552Z,7.35
2022-09-29T02:46:29.247Z,7.35
2022-09-29T02:49:09.774Z,7.62
2022-09-29T02:51:41.313Z,7.57
2022-09-29T02:54:25.478Z,7.18
2022-09-29T02:57:31.691Z,7.78
2022-09-29T03:00:10.276Z,6.80
2022-09-29T03:02:39.168Z,6.70
2022-09-29T03:05:09.946Z,6.70
2022-09-29T03:07:38.406Z,6.62
2022-09-29T03:10:07.501Z,6.43
2022-09-29T03:12:35.666Z,6.45
2022-09-29T03:15:03.769Z,6.30
2022-09-29T03:17:31.407Z,6.37
2022-09-29T03:19:58.909Z,6.30
2022-09-29T03:22:26.685Z,6.05
2022-09-29T03:24:54.014Z,6.70
2022-09-29T03:27:21.351Z,6.07
2022-09-29T03:29:50.513Z,5.60
2022-09-29T03:32:18.253Z,6.12
2022-09-29T03:34:45.618Z,6.00
2022-09-29T03:37:13.293Z,6.68
2022-09-29T03:39:40.720Z,6.03
2022-09-29T03:42:08.070Z,6.60
2022-09-29T03:44:35.701Z,6.75
2022-09-29T03:47:03.214Z,6.80
2022-09-29T03:49:30.599Z,6.57
2022-09-29T03:51:58.213Z,6.97
2022-09-29T03:54:27.660Z,7.20
2022-09-29T03:56:54.989Z,7.00
2022-09-29T03:59:22.684Z,7.72
2022-09-29T04:01:50.315Z,9.27
2022-09-29T04:04:17.992Z,6.97
2022-09-29T04:06:45.510Z,6.65
2022-09-29T04:09:12.961Z,7.40
2022-09-29T04:11:40.693Z,7.37
2022-09-29T04:14:08.068Z,8.30
2022-09-29T04:16:35.720Z,7.80
2022-09-29T04:19:03.536Z,7.12
2022-09-29T04:21:30.922Z,7.97
2022-09-29T04:23:58.284Z,7.45
2022-09-29T04:26:26.025Z,7.90
2022-09-29T04:28:53.371Z,7.28
2022-09-29T04:31:20.810Z,7.60
2022-09-29T04:33:48.507Z,7.85
2022-09-29T04:36:15.907Z,7.45
2022-09-29T04:38:43.331Z,7.35
2022-09-29T04:41:11.070Z,7.22
2022-09-29T04:43:38.525Z,7.75
2022-09-29T04:46:07.625Z,7.68
2022-09-29T04:48:36.297Z,7.70
2022-09-29T04:51:04.507Z,7.12
2022-09-29T04:53:32.406Z,7.35
2022-09-29T04:56:04.994Z,7.35
2022-09-29T04:58:32.407Z,7.95
2022-09-29T05:01:12.907Z,6.80
2022-09-29T05:03:41.151Z,9.38
2022-09-29T05:06:09.914Z,9.07
2022-09-29T05:08:37.297Z,9.05
2022-09-29T05:11:08.862Z,10.18
2022-09-29T05:13:36.757Z,9.75
2022-09-29T05:16:04.828Z,12.37
2022-09-29T05:18:32.686Z,12.10
2022-09-29T05:21:27.185Z,12.20
2022-09-29T05:23:55.531Z,12.35
2022-09-29T05:26:23.464Z,11.90
2022-09-29T05:28:50.843Z,12.55
2022-09-29T05:31:19.076Z,11.77
2022-09-29T05:33:46.970Z,12.15
2022-09-29T05:36:14.362Z,11.82
2022-09-29T05:38:41.867Z,13.65
2022-09-29T05:41:12.149Z,12.20
2022-09-29T05:43:40.482Z,10.90
2022-09-29T05:46:09.214Z,10.18
2022-09-29T05:48:36.975Z,9.43
2022-09-29T05:51:10.383Z,9.85
2022-09-29T05:53:38.634Z,9.32
2022-09-29T05:56:17.222Z,9.05
2022-09-29T05:58:45.121Z,8.27
2022-09-29T06:01:15.577Z,8.10
2022-09-29T06:03:43.278Z,7.47
2022-09-29T06:06:16.397Z,6.90
2022-09-29T06:08:44.435Z,7.20
2022-09-29T06:11:16.571Z,7.28
2022-09-29T06:13:48.877Z,6.75
2022-09-29T06:16:17.799Z,6.57
2022-09-29T06:18:46.234Z,4.68
2022-09-29T06:21:16.624Z,3.90
2022-09-29T06:23:44.275Z,3.70
2022-09-29T06:26:14.217Z,2.92
2022-09-29T06:28:41.695Z,2.70
2022-09-29T06:31:12.833Z,2.90
2022-09-29T06:33:40.703Z,2.75
2022-09-29T06:36:36.103Z,2.83
2022-09-29T06:39:05.447Z,2.03
2022-09-29T06:41:33.168Z,2.80
2022-09-29T06:44:01.162Z,5.57
2022-09-29T06:46:28.996Z,5.90
2022-09-29T06:48:56.499Z,6.03
2022-09-29T06:51:33.223Z,5.00
2022-09-29T06:54:12.152Z,2.80
2022-09-29T06:56:40.728Z,2.00
2022-09-29T06:59:08.963Z,2.60
2022-09-29T07:01:36.364Z,2.58
2022-09-29T07:04:03.869Z,1.60
2022-09-29T07:06:31.560Z,1.62
2022-09-29T07:08:59.523Z,1.77
2022-09-29T07:11:27.379Z,1.58
2022-09-29T07:13:55.327Z,1.67
2022-09-29T07:16:24.305Z,1.48
2022-09-29T07:18:52.044Z,1.90
2022-09-29T07:21:19.844Z,1.92
2022-09-29T07:23:49.282Z,1.62
2022-09-29T07:26:20.828Z,1.65
2022-09-29T07:28:48.776Z,1.98
2022-09-29T07:31:18.689Z,1.90
2022-09-29T07:33:48.478Z,2.20
2022-09-29T07:36:17.751Z,1.80
2022-09-29T07:38:49.483Z,1.42
2022-09-29T07:41:19.281Z,1.48
2022-09-29T07:43:46.925Z,1.48
2022-09-29T07:46:14.366Z,1.60
2022-09-29T07:48:42.976Z,1.65
2022-09-29T07:51:13.259Z,1.87
2022-09-29T07:53:40.653Z,2.05
2022-09-29T07:56:10.916Z,2.03
2022-09-29T07:58:39.041Z,3.40
2022-09-29T08:01:10.597Z,2.97
2022-09-29T08:03:40.474Z,2.10
2022-09-29T08:06:08.593Z,2.20
2022-09-29T08:08:37.731Z,1.90
2022-09-29T08:11:13.375Z,1.98
2022-09-29T08:13:48.324Z,1.90
2022-09-29T08:16:16.079Z,1.60
2022-09-29T08:18:43.644Z,2.17
2022-09-29T08:21:12.220Z,1.55
2022-09-29T08:23:41.653Z,2.05
2022-09-29T08:26:12.237Z,1.35
2022-09-29T08:28:40.481Z,1.60
2022-09-29T08:31:10.659Z,1.20
2022-09-29T08:33:38.106Z,1.30
2022-09-29T08:36:14.464Z,1.30
2022-09-29T08:38:45.168Z,1.10
2022-09-29T08:41:34.384Z,1.50
2022-09-29T08:44:10.286Z,0.98
2022-09-29T08:46:52.049Z,0.80
2022-09-29T08:49:33.268Z,0.70
2022-09-29T08:52:16.875Z,0.60
2022-09-29T08:54:48.934Z,0.75
2022-09-29T08:57:19.023Z,0.50
2022-09-29T08:59:58.053Z,0.80
2022-09-29T09:02:30.052Z,1.05
2022-09-29T09:05:10.022Z,0.80
2022-09-29T09:08:02.014Z,0.73
2022-09-29T09:10:47.423Z,0.60
2022-09-29T09:13:21.053Z,0.80
2022-09-29T09:16:30.176Z,1.00
2022-09-29T09:19:09.659Z,0.68
2022-09-29T09:21:42.754Z,0.60
2022-09-29T09:24:26.881Z,1.00
2022-09-29T09:26:54.483Z,0.70
2022-09-29T09:29:37.275Z,0.60
2022-09-29T09:32:36.262Z,0.90
2022-09-29T09:35:24.953Z,0.90
2022-09-29T09:37:54.542Z,0.57
2022-09-29T09:40:25.552Z,0.68
2022-09-29T09:43:00.473Z,1.10
2022-09-29T09:45:36.963Z,0.77
2022-09-29T09:48:08.740Z,0.90
2022-09-29T09:50:39.736Z,0.90
2022-09-29T09:53:16.020Z,1.00
2022-09-29T09:55:43.787Z,0.90
2022-09-29T09:58:49.406Z,0.80
2022-09-29T10:03:45.378Z,0.80
2022-09-29T10:06:13.318Z,1.00
2022-09-29T10:08:42.303Z,0.70
2022-09-29T10:11:19.178Z,1.00
2022-09-29T10:13:49.507Z,0.88
2022-09-29T10:16:24.612Z,0.70
2022-09-29T10:18:55.656Z,0.70
2022-09-29T10:21:27.280Z,0.93
2022-09-29T10:23:56.364Z,0.60
2022-09-29T10:26:46.956Z,0.80
2022-09-29T10:29:34.761Z,0.70
2022-09-29T10:32:05.865Z,0.50
2022-09-29T10:34:37.494Z,0.52
2022-09-29T10:37:17.813Z,0.40
2022-09-29T10:39:48.228Z,0.60
2022-09-29T10:42:35.495Z,0.40
2022-09-29T10:45:14.448Z,0.47
2022-09-29T10:47:45.753Z,0.45
2022-09-29T10:50:22.542Z,0.50
2022-09-29T10:52:59.163Z,0.32
2022-09-29T10:55:36.512Z,0.37
2022-09-29T11:01:23.678Z,0.35
2022-09-29T11:03:55.355Z,0.40
2022-09-29T11:06:33.289Z,0.60
2022-09-29T11:09:02.081Z,0.57
2022-09-29T11:11:35.598Z,0.60
2022-09-29T11:14:03.750Z,0.40
2022-09-29T11:16:37.080Z,0.40
2022-09-29T11:19:05.987Z,0.40
2022-09-29T11:21:42.962Z,0.30
2022-09-29T11:24:45.079Z,0.40
2022-09-29T11:27:19.760Z,0.40
2022-09-29T11:30:11.876Z,0.40
2022-09-29T11:32:54.535Z,0.40
2022-09-29T11:35:33.828Z,0.40
2022-09-29T11:38:11.070Z,0.57
2022-09-29T11:40:48.652Z,0.30
2022-09-29T11:43:29.386Z,0.50
2022-09-29T11:45:57.044Z,0.50
2022-09-29T11:48:37.492Z,0.60
2022-09-29T11:51:16.902Z,0.60
2022-09-29T11:54:10.945Z,0.40
2022-09-29T11:56:51.543Z,0.60
2022-09-29T11:59:57.225Z,0.40
2022-09-29T12:02:31.899Z,0.50
2022-09-29T12:05:35.964Z,0.40
2022-09-29T12:08:06.507Z,0.43
2022-09-29T12:10:45.281Z,0.85
2022-09-29T12:13:38.563Z,0.40
2022-09-29T12:16:13.475Z,0.40
2022-09-29T12:18:54.254Z,0.40
2022-09-29T12:21:50.468Z,0.30
2022-09-29T12:24:33.267Z,0.45
2022-09-29T12:27:04.065Z,0.40
2022-09-29T12:29:35.332Z,0.50
2022-09-29T12:32:19.264Z,0.62
2022-09-29T12:34:56.575Z,0.60
2022-09-29T12:37:33.277Z,0.70
2022-09-29T12:40:12.338Z,0.60
2022-09-29T12:43:04.249Z,0.50
2022-09-29T12:45:54.342Z,0.60
2022-09-29T12:48:33.727Z,1.00
2022-09-29T12:51:10.422Z,0.73
2022-09-29T12:53:46.478Z,0.70
2022-09-29T12:56:22.778Z,0.50
2022-09-29T12:59:03.018Z,0.70
2022-09-29T13:01:33.067Z,0.80
2022-09-29T13:04:21.831Z,0.70
2022-09-29T13:07:01.043Z,0.88
2022-09-29T13:09:34.554Z,1.20
2022-09-29T13:12:21.024Z,1.60
2022-09-29T13:14:51.583Z,0.88
2022-09-29T13:17:37.547Z,1.20
2022-09-29T13:20:37.534Z,0.90
2022-09-29T13:23:31.874Z,0.98
2022-09-29T13:26:21.520Z,0.90
2022-09-29T13:28:52.548Z,1.20
2022-09-29T13:31:24.889Z,1.08
2022-09-29T13:33:55.675Z,1.00
2022-09-29T13:36:28.646Z,1.08
2022-09-29T13:38:58.451Z,1.02
2022-09-29T13:41:30.097Z,0.82
2022-09-29T13:43:57.373Z,1.08
2022-09-29T13:46:34.289Z,0.93
2022-09-29T13:49:13.915Z,0.82
2022-09-29T13:51:53.457Z,0.95
2022-09-29T13:54:26.812Z,0.80
2022-09-29T13:57:12.510Z,1.08
2022-09-29T13:59:44.720Z,0.98
2022-09-29T14:02:20.935Z,1.00
2022-09-29T14:04:55.726Z,0.80
2022-09-29T14:07:46.814Z,1.05
2022-09-29T14:10:52.046Z,0.95
2022-09-29T14:13:29.553Z,0.60
2022-09-29T14:16:18.186Z,1.00
2022-09-29T14:18:51.197Z,0.70
2022-09-29T14:21:57.064Z,1.00
2022-09-29T14:24:36.822Z,0.65
2022-09-29T14:27:18.137Z,0.70
2022-09-29T14:30:12.826Z,1.00
2022-09-29T14:32:45.879Z,1.00
2022-09-29T14:35:20.185Z,0.90
2022-09-29T14:37:53.250Z,0.93
2022-09-29T14:40:29.394Z,0.77
2022-09-29T14:43:17.137Z,0.80
2022-09-29T14:46:21.837Z,0.93
2022-09-29T14:49:27.084Z,0.77
2022-09-29T14:52:03.294Z,0.93
2022-09-29T14:54:49.327Z,0.88
2022-09-29T14:57:38.516Z,0.98
2022-09-29T15:00:11.474Z,1.25
2022-09-29T15:02:43.670Z,0.70
2022-09-29T15:05:13.067Z,0.95
2022-09-29T15:07:41.844Z,0.90
2022-09-29T15:10:32.764Z,0.90
2022-09-29T15:13:23.813Z,0.90
2022-09-29T15:15:56.794Z,0.80
2022-09-29T15:18:33.373Z,0.93
2022-09-29T15:21:06.566Z,0.80
2022-09-29T15:24:04.398Z,1.25
2022-09-29T15:26:33.542Z,1.08
2022-09-29T15:29:06.129Z,1.12
2022-09-29T15:31:36.937Z,1.40
2022-09-29T15:34:04.984Z,1.27
2022-09-29T15:36:36.270Z,1.50
2022-09-29T15:39:40.654Z,0.80
2022-09-29T15:42:20.571Z,1.20
2022-09-29T15:44:58.748Z,1.40
2022-09-29T15:47:35.793Z,1.17
2022-09-29T15:50:17.779Z,1.05
2022-09-29T15:52:46.009Z,2.30
2022-09-29T15:55:18.751Z,2.45
2022-09-29T15:57:50.236Z,1.50
2022-09-29T16:00:23.352Z,2.05
2022-09-29T16:03:40.864Z,2.47
2022-09-29T16:06:22.371Z,2.30
2022-09-29T16:08:55.637Z,3.40
2022-09-29T16:11:30.738Z,3.80
2022-09-29T16:14:04.091Z,4.40
2022-09-29T16:16:36.311Z,4.10
2022-09-29T16:19:10.649Z,5.93
2022-09-29T16:21:38.445Z,5.95
2022-09-29T16:24:18.862Z,4.12
2022-09-29T16:26:54.721Z,4.55
2022-09-29T16:29:22.212Z,4.72
2022-09-29T16:31:50.541Z,4.72
2022-09-29T16:34:23.665Z,7.43
2022-09-29T16:36:59.080Z,7.57
2022-09-29T16:39:33.420Z,8.35
2022-09-29T16:42:03.792Z,16.67
2022-09-29T16:44:34.239Z,14.80
2022-09-29T16:47:23.882Z,12.93
2022-09-29T16:49:53.668Z,10.68
2022-09-29T16:52:26.641Z,8.52
2022-09-29T16:55:22.120Z,6.72
2022-09-29T16:57:52.832Z,6.57
2022-09-29T17:00:20.286Z,5.30
2022-09-29T17:02:55.367Z,5.28
2022-09-29T17:05:24.187Z,7.72
2022-09-29T17:08:00.036Z,6.35
2022-09-29T17:10:28.016Z,7.32
2022-09-29T17:12:55.434Z,6.95
2022-09-29T17:15:23.251Z,9.90
2022-09-29T17:17:51.830Z,13.55
2022-09-29T17:20:22.126Z,10.35
2022-09-29T17:22:49.619Z,9.50
2022-09-29T17:25:17.236Z,10.82
2022-09-29T17:28:03.455Z,8.23
2022-09-29T17:30:31.141Z,11.20
2022-09-29T17:32:59.359Z,9.98
2022-09-29T17:35:29.701Z,9.38
2022-09-29T17:37:57.861Z,7.85
2022-09-29T17:40:28.185Z,6.50
2022-09-29T17:42:59.068Z,8.23
2022-09-29T17:45:27.722Z,9.20
2022-09-29T17:47:55.140Z,11.20
2022-09-29T17:50:25.801Z,12.23
2022-09-29T17:52:54.256Z,14.73
2022-09-29T17:55:23.023Z,16.27
2022-09-29T17:57:53.181Z,13.48
2022-09-29T18:00:23.699Z,14.55
2022-09-29T18:02:52.196Z,19.17
2022-09-29T18:05:22.649Z,16.90
2022-09-29T18:07:51.250Z,13.75
2022-09-29T18:10:29.672Z,12.35
2022-09-29T18:12:57.630Z,10.75
2022-09-29T18:15:25.917Z,9.98
2022-09-29T18:18:02.155Z,14.18
2022-09-29T18:20:36.234Z,17.75
2022-09-29T18:23:03.744Z,17.07
2022-09-29T18:25:33.500Z,15.82
2022-09-29T18:28:02.079Z,17.20
2022-09-29T18:30:31.052Z,16.23
2022-09-29T18:33:00.288Z,14.75
2022-09-29T18:35:33.092Z,13.07
2022-09-29T18:38:01.199Z,10.25
2022-09-29T18:40:30.361Z,8.82
2022-09-29T18:42:58.919Z,8.20
2022-09-29T18:45:29.753Z,12.43
2022-09-29T18:47:59.422Z,15.48
2022-09-29T18:50:29.886Z,15.52
2022-09-29T18:52:57.891Z,15.02
2022-09-29T18:55:26.991Z,15.70
2022-09-29T18:57:56.635Z,16.83
2022-09-29T19:00:31.169Z,17.27
2022-09-29T19:05:32.040Z,17.12
2022-09-29T19:08:01.702Z,17.77
2022-09-29T19:10:32.546Z,16.00
2022-09-29T19:13:02.819Z,15.68
2022-09-29T19:15:34.528Z,14.87
2022-09-29T19:18:04.468Z,13.23
2022-09-29T19:20:32.149Z,13.43
2022-09-29T19:23:03.111Z,14.05
2022-09-29T19:25:34.172Z,15.15
2022-09-29T19:28:05.410Z,13.98
2022-09-29T19:30:36.232Z,13.23
2022-09-29T19:33:04.658Z,12.55
2022-09-29T19:35:32.325Z,12.63
2022-09-29T19:38:00.248Z,13.65
2022-09-29T19:40:30.624Z,14.07
2022-09-29T19:42:58.779Z,13.73
2022-09-29T19:45:27.779Z,13.23
2022-09-29T19:47:57.289Z,11.05
2022-09-29T19:50:43.599Z,10.07
2022-09-29T19:53:11.279Z,16.10
2022-09-29T19:55:40.321Z,14.23
2022-09-29T19:58:08.255Z,13.57
2022-09-29T20:00:36.715Z,10.13
2022-09-29T20:03:04.663Z,11.45
2022-09-29T20:05:32.073Z,14.45
2022-09-29T20:07:59.820Z,14.87
2022-09-29T20:10:28.547Z,22.48
2022-09-29T20:12:57.253Z,20.62
2022-09-29T20:15:25.736Z,17.27
2022-09-29T20:17:53.671Z,19.05
2022-09-29T20:20:23.826Z,14.18
2022-09-29T20:22:51.826Z,14.90
2022-09-29T20:25:20.310Z,14.70
2022-09-29T20:27:47.672Z,12.93
2022-09-29T20:30:15.036Z,10.93
2022-09-29T20:32:42.712Z,10.15
2022-09-29T20:35:10.073Z,10.00
2022-09-29T20:37:38.978Z,9.65
2022-09-29T20:40:08.129Z,9.27
2022-09-29T20:42:38.391Z,7.32
2022-09-29T20:45:06.276Z,7.12
2022-09-29T20:47:35.054Z,7.12
2022-09-29T20:50:02.402Z,8.63
2022-09-29T20:52:29.841Z,8.40
2022-09-29T20:54:59.536Z,7.57
2022-09-29T20:57:27.023Z,7.30
2022-09-29T20:59:55.681Z,7.45
2022-09-29T21:02:23.361Z,6.70
2022-09-29T21:04:50.871Z,6.72
2022-09-29T21:07:36.496Z,10.05
2022-09-29T21:10:07.890Z,8.30
2022-09-29T21:12:35.255Z,7.95
2022-09-29T21:15:03.495Z,7.20
2022-09-29T21:17:31.075Z,6.05
2022-09-29T21:19:58.454Z,7.15
2022-09-29T21:22:27.898Z,5.40
2022-09-29T21:24:56.050Z,6.12
2022-09-29T21:27:23.479Z,7.05
2022-09-29T21:29:50.824Z,7.00
2022-09-29T21:32:18.509Z,6.95
2022-09-29T21:34:45.924Z,6.28
2022-09-29T21:37:13.265Z,5.87
2022-09-29T21:39:42.093Z,5.62
2022-09-29T21:42:09.486Z,5.85
2022-09-29T21:44:37.692Z,5.22
2022-09-29T21:47:05.739Z,5.62
2022-09-29T21:49:33.081Z,6.25
2022-09-29T21:52:02.115Z,7.90
2022-09-29T21:54:30.471Z,7.25
2022-09-29T21:56:57.954Z,7.20
2022-09-29T21:59:25.413Z,6.93
2022-09-29T22:01:53.383Z,6.37
2022-09-29T22:04:21.430Z,6.45
2022-09-29T22:06:49.171Z,6.20
2022-09-29T22:09:19.790Z,6.57
2022-09-29T22:11:50.053Z,6.53
2022-09-29T22:14:18.191Z,6.95
2022-09-29T22:16:45.876Z,6.82
2022-09-29T22:19:29.213Z,6.85
2022-09-29T22:21:57.103Z,6.78
2022-09-29T22:24:27.408Z,7.45
2022-09-29T22:26:55.185Z,7.37
2022-09-29T22:29:22.890Z,6.60
2022-09-29T22:31:51.013Z,6.60
2022-09-29T22:34:18.470Z,6.35
2022-09-29T22:36:45.846Z,7.12
2022-09-29T22:39:13.538Z,6.12
2022-09-29T22:41:41.176Z,6.72
2022-09-29T22:44:08.785Z,6.15
2022-09-29T22:46:36.625Z,6.35
2022-09-29T22:49:04.464Z,6.97
2022-09-29T22:51:32.188Z,7.57
2022-09-29T22:53:59.849Z,6.75
2022-09-29T22:56:29.713Z,7.12
2022-09-29T22:59:02.386Z,7.12
2022-09-29T23:01:30.271Z,6.55
2022-09-29T23:03:57.789Z,6.40
2022-09-29T23:06:25.262Z,7.55
2022-09-29T23:08:54.439Z,7.60
2022-09-29T23:11:21.944Z,7.15
2022-09-29T23:13:49.425Z,7.32
2022-09-29T23:16:17.354Z,8.35
2022-09-29T23:18:45.961Z,8.75
2022-09-29T23:21:17.506Z,8.02
2022-09-29T23:23:45.909Z,7.72
2022-09-29T23:26:13.377Z,8.05
2022-09-29T23:28:40.810Z,8.68
2022-09-29T23:31:08.704Z,9.57
2022-09-29T23:33:36.240Z,8.55
2022-09-29T23:36:12.239Z,8.85
2022-09-29T23:38:59.634Z,8.63
2022-09-29T23:41:27.935Z,8.50
2022-09-29T23:43:57.140Z,8.45
2022-09-29T23:46:25.531Z,8.60
2022-09-29T23:48:53.001Z,8.30
2022-09-29T23:51:20.743Z,8.00
2022-09-29T23:53:48.094Z,7.75
2022-09-29T23:56:15.635Z,7.30
2022-09-29T23:58:43.618Z,6.45
